sensor_id;sensor_type;location;lat;lon;timestamp;temperature;humidity
35240;DHT22;21376;50.954;4.716;2022-09-09T00:32:48;14.70;99.90
35240;DHT22;21376;50.954;4.716;2022-09-09T00:35:25;14.90;99.90
35240;DHT22;21376;50.954;4.716;2022-09-09T00:38:28;14.70;99.90
35240;DHT22;21376;50.954;4.716;2022-09-09T00:51:57;14.70;99.90
35240;DHT22;21376;50.954;4.716;2022-09-09T00:57:06;14.90;99.90
35240;DHT22;21376;50.954;4.716;2022-09-09T01:14:11;14.90;99.90
35240;DHT22;21376;50.954;4.716;2022-09-09T01:16:42;14.90;99.90
35240;DHT22;21376;50.954;4.716;2022-09-09T01:21:56;15.10;99.90
35240;DHT22;21376;50.954;4.716;2022-09-09T01:26:59;15.00;99.90
35240;DHT22;21376;50.954;4.716;2022-09-09T01:29:29;14.80;99.90
35240;DHT22;21376;50.954;4.716;2022-09-09T01:32:03;14.90;99.90
35240;DHT22;21376;50.954;4.716;2022-09-09T01:34:54;14.80;99.90
35240;DHT22;21376;50.954;4.716;2022-09-09T01:37:22;14.80;99.90
35240;DHT22;21376;50.954;4.716;2022-09-09T01:39:51;15.00;99.90
35240;DHT22;21376;50.954;4.716;2022-09-09T01:42:19;15.00;99.90
35240;DHT22;21376;50.954;4.716;2022-09-09T01:44:45;15.00;99.90
35240;DHT22;21376;50.954;4.716;2022-09-09T01:47:14;15.00;99.90
35240;DHT22;21376;50.954;4.716;2022-09-09T01:52:09;15.00;99.90
35240;DHT22;21376;50.954;4.716;2022-09-09T02:05:27;14.90;99.90
35240;DHT22;21376;50.954;4.716;2022-09-09T02:14:18;14.70;99.90
35240;DHT22;21376;50.954;4.716;2022-09-09T02:16:52;14.90;99.90
35240;DHT22;21376;50.954;4.716;2022-09-09T02:19:32;15.00;99.90
35240;DHT22;21376;50.954;4.716;2022-09-09T02:22:12;14.90;99.90
35240;DHT22;21376;50.954;4.716;2022-09-09T02:24:40;14.80;99.90
35240;DHT22;21376;50.954;4.716;2022-09-09T02:27:06;14.80;99.90
35240;DHT22;21376;50.954;4.716;2022-09-09T02:29:37;14.70;99.90
35240;DHT22;21376;50.954;4.716;2022-09-09T02:32:05;14.70;99.90
35240;DHT22;21376;50.954;4.716;2022-09-09T02:34:35;14.80;99.90
35240;DHT22;21376;50.954;4.716;2022-09-09T02:37:08;14.70;99.90
35240;DHT22;21376;50.954;4.716;2022-09-09T02:39:36;14.60;99.90
35240;DHT22;21376;50.954;4.716;2022-09-09T02:42:04;14.70;99.90
35240;DHT22;21376;50.954;4.716;2022-09-09T02:44:31;14.80;99.90
35240;DHT22;21376;50.954;4.716;2022-09-09T02:47:11;14.70;99.90
35240;DHT22;21376;50.954;4.716;2022-09-09T02:52:31;14.80;99.90
35240;DHT22;21376;50.954;4.716;2022-09-09T02:57:29;14.70;99.90
35240;DHT22;21376;50.954;4.716;2022-09-09T03:00:01;14.80;99.90
35240;DHT22;21376;50.954;4.716;2022-09-09T03:02:26;14.90;99.90
35240;DHT22;21376;50.954;4.716;2022-09-09T03:04:53;14.70;99.90
35240;DHT22;21376;50.954;4.716;2022-09-09T03:07:20;14.80;99.90
35240;DHT22;21376;50.954;4.716;2022-09-09T03:09:49;14.90;99.90
35240;DHT22;21376;50.954;4.716;2022-09-09T03:12:18;15.00;99.90
35240;DHT22;21376;50.954;4.716;2022-09-09T03:14:47;15.00;99.90
35240;DHT22;21376;50.954;4.716;2022-09-09T03:17:14;15.00;99.90
35240;DHT22;21376;50.954;4.716;2022-09-09T03:19:43;14.90;99.90
35240;DHT22;21376;50.954;4.716;2022-09-09T03:22:12;14.80;99.90
35240;DHT22;21376;50.954;4.716;2022-09-09T03:24:38;14.80;99.90
35240;DHT22;21376;50.954;4.716;2022-09-09T03:27:10;14.80;99.90
35240;DHT22;21376;50.954;4.716;2022-09-09T03:32:08;14.70;99.90
35240;DHT22;21376;50.954;4.716;2022-09-09T03:34:36;14.70;99.90
35240;DHT22;21376;50.954;4.716;2022-09-09T03:37:08;14.70;99.90
35240;DHT22;21376;50.954;4.716;2022-09-09T03:42:06;14.70;99.90
35240;DHT22;21376;50.954;4.716;2022-09-09T03:44:34;14.70;99.90
35240;DHT22;21376;50.954;4.716;2022-09-09T03:47:01;14.70;99.90
35240;DHT22;21376;50.954;4.716;2022-09-09T03:49:33;14.70;99.90
35240;DHT22;21376;50.954;4.716;2022-09-09T03:55:02;14.70;99.90
35240;DHT22;21376;50.954;4.716;2022-09-09T04:00:16;14.80;99.90
35240;DHT22;21376;50.954;4.716;2022-09-09T04:10:47;14.60;99.90
35240;DHT22;21376;50.954;4.716;2022-09-09T04:13:16;14.60;99.90
35240;DHT22;21376;50.954;4.716;2022-09-09T04:15:43;14.60;99.90
35240;DHT22;21376;50.954;4.716;2022-09-09T04:18:10;14.60;99.90
35240;DHT22;21376;50.954;4.716;2022-09-09T04:20:37;14.70;99.90
35240;DHT22;21376;50.954;4.716;2022-09-09T04:23:13;14.70;99.90
35240;DHT22;21376;50.954;4.716;2022-09-09T04:25:49;14.50;99.90
35240;DHT22;21376;50.954;4.716;2022-09-09T04:28:16;14.70;99.90
35240;DHT22;21376;50.954;4.716;2022-09-09T04:30:46;14.70;99.90
35240;DHT22;21376;50.954;4.716;2022-09-09T04:33:13;14.70;99.90
35240;DHT22;21376;50.954;4.716;2022-09-09T04:35:44;14.80;99.90
35240;DHT22;21376;50.954;4.716;2022-09-09T04:38:10;14.70;99.90
35240;DHT22;21376;50.954;4.716;2022-09-09T04:40:36;14.70;99.90
35240;DHT22;21376;50.954;4.716;2022-09-09T04:43:02;14.70;99.90
35240;DHT22;21376;50.954;4.716;2022-09-09T04:48:29;14.90;99.90
35240;DHT22;21376;50.954;4.716;2022-09-09T04:50:58;14.90;99.90
35240;DHT22;21376;50.954;4.716;2022-09-09T04:53:24;14.80;99.90
35240;DHT22;21376;50.954;4.716;2022-09-09T04:58:22;14.70;99.90
35240;DHT22;21376;50.954;4.716;2022-09-09T05:00:50;14.70;99.90
35240;DHT22;21376;50.954;4.716;2022-09-09T05:03:17;14.60;99.90
35240;DHT22;21376;50.954;4.716;2022-09-09T05:05:45;14.70;99.90
35240;DHT22;21376;50.954;4.716;2022-09-09T05:08:14;14.80;99.90
35240;DHT22;21376;50.954;4.716;2022-09-09T05:10:46;14.70;99.90
35240;DHT22;21376;50.954;4.716;2022-09-09T05:13:13;14.90;99.90
35240;DHT22;21376;50.954;4.716;2022-09-09T05:15:40;14.80;99.90
35240;DHT22;21376;50.954;4.716;2022-09-09T05:18:08;14.80;99.90
35240;DHT22;21376;50.954;4.716;2022-09-09T05:23:03;14.80;99.90
35240;DHT22;21376;50.954;4.716;2022-09-09T05:25:28;14.90;99.90
35240;DHT22;21376;50.954;4.716;2022-09-09T05:27:55;14.80;99.90
35240;DHT22;21376;50.954;4.716;2022-09-09T05:30:21;14.80;99.90
35240;DHT22;21376;50.954;4.716;2022-09-09T05:33:00;14.70;99.90
35240;DHT22;21376;50.954;4.716;2022-09-09T05:38:01;14.70;99.90
35240;DHT22;21376;50.954;4.716;2022-09-09T05:40:27;15.00;99.90
35240;DHT22;21376;50.954;4.716;2022-09-09T05:42:55;15.00;99.90
35240;DHT22;21376;50.954;4.716;2022-09-09T05:45:22;15.10;99.90
35240;DHT22;21376;50.954;4.716;2022-09-09T05:47:51;15.20;99.90
35240;DHT22;21376;50.954;4.716;2022-09-09T05:50:22;15.40;99.90
35240;DHT22;21376;50.954;4.716;2022-09-09T05:52:54;15.50;99.90
35240;DHT22;21376;50.954;4.716;2022-09-09T05:55:19;15.40;99.90
35240;DHT22;21376;50.954;4.716;2022-09-09T05:57:49;15.60;99.90
35240;DHT22;21376;50.954;4.716;2022-09-09T06:00:18;15.70;99.90
35240;DHT22;21376;50.954;4.716;2022-09-09T06:02:49;15.90;99.90
35240;DHT22;21376;50.954;4.716;2022-09-09T06:05:23;15.90;99.90
35240;DHT22;21376;50.954;4.716;2022-09-09T06:07:53;16.10;99.90
35240;DHT22;21376;50.954;4.716;2022-09-09T06:10:25;16.10;99.90
35240;DHT22;21376;50.954;4.716;2022-09-09T06:12:52;16.20;99.90
35240;DHT22;21376;50.954;4.716;2022-09-09T06:15:18;16.20;99.90
35240;DHT22;21376;50.954;4.716;2022-09-09T06:17:45;16.10;99.90
35240;DHT22;21376;50.954;4.716;2022-09-09T06:20:14;16.20;99.90
35240;DHT22;21376;50.954;4.716;2022-09-09T06:22:59;16.20;99.90
35240;DHT22;21376;50.954;4.716;2022-09-09T06:25:26;16.10;99.90
35240;DHT22;21376;50.954;4.716;2022-09-09T06:27:51;15.90;99.90
35240;DHT22;21376;50.954;4.716;2022-09-09T06:30:32;16.00;99.90
35240;DHT22;21376;50.954;4.716;2022-09-09T06:32:58;16.00;99.90
35240;DHT22;21376;50.954;4.716;2022-09-09T06:35:24;16.30;99.90
35240;DHT22;21376;50.954;4.716;2022-09-09T06:37:53;16.60;99.90
35240;DHT22;21376;50.954;4.716;2022-09-09T06:45:18;17.00;99.90
35240;DHT22;21376;50.954;4.716;2022-09-09T06:47:46;16.90;99.90
35240;DHT22;21376;50.954;4.716;2022-09-09T06:50:16;16.60;99.90
35240;DHT22;21376;50.954;4.716;2022-09-09T06:52:41;16.60;99.90
35240;DHT22;21376;50.954;4.716;2022-09-09T06:55:08;16.90;99.90
35240;DHT22;21376;50.954;4.716;2022-09-09T06:57:34;17.70;99.90
35240;DHT22;21376;50.954;4.716;2022-09-09T07:00:01;17.90;99.90
35240;DHT22;21376;50.954;4.716;2022-09-09T07:02:30;17.70;99.90
35240;DHT22;21376;50.954;4.716;2022-09-09T07:04:58;17.60;99.90
35240;DHT22;21376;50.954;4.716;2022-09-09T07:07:24;17.70;99.90
35240;DHT22;21376;50.954;4.716;2022-09-09T07:09:50;17.70;99.90
35240;DHT22;21376;50.954;4.716;2022-09-09T07:12:15;17.60;99.90
35240;DHT22;21376;50.954;4.716;2022-09-09T07:14:45;17.40;99.90
35240;DHT22;21376;50.954;4.716;2022-09-09T07:17:12;17.30;99.90
35240;DHT22;21376;50.954;4.716;2022-09-09T07:19:38;17.40;99.90
35240;DHT22;21376;50.954;4.716;2022-09-09T07:22:06;17.40;99.90
35240;DHT22;21376;50.954;4.716;2022-09-09T07:24:33;17.20;99.90
35240;DHT22;21376;50.954;4.716;2022-09-09T07:27:00;17.40;99.90
35240;DHT22;21376;50.954;4.716;2022-09-09T07:29:26;17.30;99.90
35240;DHT22;21376;50.954;4.716;2022-09-09T07:31:51;17.20;99.90
35240;DHT22;21376;50.954;4.716;2022-09-09T07:34:17;17.30;99.90
35240;DHT22;21376;50.954;4.716;2022-09-09T07:36:50;17.20;99.90
35240;DHT22;21376;50.954;4.716;2022-09-09T07:39:16;17.20;99.90
35240;DHT22;21376;50.954;4.716;2022-09-09T07:41:43;17.10;99.90
35240;DHT22;21376;50.954;4.716;2022-09-09T07:44:11;17.20;99.90
35240;DHT22;21376;50.954;4.716;2022-09-09T07:46:38;17.20;99.90
35240;DHT22;21376;50.954;4.716;2022-09-09T07:49:08;17.40;99.90
35240;DHT22;21376;50.954;4.716;2022-09-09T07:51:35;17.30;99.90
35240;DHT22;21376;50.954;4.716;2022-09-09T07:54:03;17.20;99.90
35240;DHT22;21376;50.954;4.716;2022-09-09T07:56:32;17.30;99.90
35240;DHT22;21376;50.954;4.716;2022-09-09T07:59:00;17.30;99.90
35240;DHT22;21376;50.954;4.716;2022-09-09T08:01:30;17.40;99.90
35240;DHT22;21376;50.954;4.716;2022-09-09T08:04:00;17.20;99.90
35240;DHT22;21376;50.954;4.716;2022-09-09T08:08:58;17.00;99.90
35240;DHT22;21376;50.954;4.716;2022-09-09T08:13:55;17.20;99.90
35240;DHT22;21376;50.954;4.716;2022-09-09T08:19:25;17.30;99.90
35240;DHT22;21376;50.954;4.716;2022-09-09T08:24:23;17.50;99.90
35240;DHT22;21376;50.954;4.716;2022-09-09T08:26:49;17.20;99.90
35240;DHT22;21376;50.954;4.716;2022-09-09T08:29:18;17.20;99.90
35240;DHT22;21376;50.954;4.716;2022-09-09T08:32:02;17.50;99.90
35240;DHT22;21376;50.954;4.716;2022-09-09T08:34:31;17.90;99.90
35240;DHT22;21376;50.954;4.716;2022-09-09T08:37:03;18.00;99.90
35240;DHT22;21376;50.954;4.716;2022-09-09T08:45:12;18.50;99.90
35240;DHT22;21376;50.954;4.716;2022-09-09T08:50:27;18.50;99.90
35240;DHT22;21376;50.954;4.716;2022-09-09T08:58:12;18.80;99.90
35240;DHT22;21376;50.954;4.716;2022-09-09T09:06:34;18.00;99.90
35240;DHT22;21376;50.954;4.716;2022-09-09T09:09:11;17.70;99.90
35240;DHT22;21376;50.954;4.716;2022-09-09T09:11:48;17.50;99.90
35240;DHT22;21376;50.954;4.716;2022-09-09T09:14:26;17.40;99.90
35240;DHT22;21376;50.954;4.716;2022-09-09T09:17:04;17.30;99.90
35240;DHT22;21376;50.954;4.716;2022-09-09T09:19:47;17.10;99.90
35240;DHT22;21376;50.954;4.716;2022-09-09T09:33:31;17.30;99.90
35240;DHT22;21376;50.954;4.716;2022-09-09T09:41:30;17.70;99.90
35240;DHT22;21376;50.954;4.716;2022-09-09T09:43:59;18.00;99.90
35240;DHT22;21376;50.954;4.716;2022-09-09T09:46:35;17.90;99.90
35240;DHT22;21376;50.954;4.716;2022-09-09T09:51:34;17.50;99.90
35240;DHT22;21376;50.954;4.716;2022-09-09T09:56:44;17.50;99.90
35240;DHT22;21376;50.954;4.716;2022-09-09T10:02:05;17.70;99.90
35240;DHT22;21376;50.954;4.716;2022-09-09T10:04:34;17.50;99.90
35240;DHT22;21376;50.954;4.716;2022-09-09T10:09:32;17.40;99.90
35240;DHT22;21376;50.954;4.716;2022-09-09T10:15:22;17.30;99.90
35240;DHT22;21376;50.954;4.716;2022-09-09T10:26:05;17.10;99.90
35240;DHT22;21376;50.954;4.716;2022-09-09T10:31:27;17.10;99.90
35240;DHT22;21376;50.954;4.716;2022-09-09T10:36:58;17.30;99.90
35240;DHT22;21376;50.954;4.716;2022-09-09T10:42:08;17.60;99.90
35240;DHT22;21376;50.954;4.716;2022-09-09T10:58:20;18.70;99.90
35240;DHT22;21376;50.954;4.716;2022-09-09T11:01:09;18.70;99.90
35240;DHT22;21376;50.954;4.716;2022-09-09T11:03:39;18.80;99.90
35240;DHT22;21376;50.954;4.716;2022-09-09T11:06:06;18.80;99.90
35240;DHT22;21376;50.954;4.716;2022-09-09T11:08:38;19.30;99.90
35240;DHT22;21376;50.954;4.716;2022-09-09T11:11:21;19.30;99.90
35240;DHT22;21376;50.954;4.716;2022-09-09T11:13:55;19.50;99.90
35240;DHT22;21376;50.954;4.716;2022-09-09T11:16:34;19.60;99.90
35240;DHT22;21376;50.954;4.716;2022-09-09T11:21:52;19.90;99.90
35240;DHT22;21376;50.954;4.716;2022-09-09T11:38:17;21.30;99.90
35240;DHT22;21376;50.954;4.716;2022-09-09T11:45:54;22.00;99.90
35240;DHT22;21376;50.954;4.716;2022-09-09T11:48:25;21.90;99.90
35240;DHT22;21376;50.954;4.716;2022-09-09T11:51:28;21.60;99.90
35240;DHT22;21376;50.954;4.716;2022-09-09T11:56:52;21.50;99.90
35240;DHT22;21376;50.954;4.716;2022-09-09T12:17:57;22.20;99.90
35240;DHT22;21376;50.954;4.716;2022-09-09T12:20:34;22.60;99.90
35240;DHT22;21376;50.954;4.716;2022-09-09T12:28:41;22.20;99.90
35240;DHT22;21376;50.954;4.716;2022-09-09T12:31:14;21.70;99.90
35240;DHT22;21376;50.954;4.716;2022-09-09T12:33:46;21.70;99.90
35240;DHT22;21376;50.954;4.716;2022-09-09T12:36:15;21.70;99.90
35240;DHT22;21376;50.954;4.716;2022-09-09T12:38:43;20.90;99.90
35240;DHT22;21376;50.954;4.716;2022-09-09T12:41:25;21.00;99.90
35240;DHT22;21376;50.954;4.716;2022-09-09T12:44:08;21.60;99.90
35240;DHT22;21376;50.954;4.716;2022-09-09T12:46:41;21.40;99.90
35240;DHT22;21376;50.954;4.716;2022-09-09T12:52:23;21.80;99.90
35240;DHT22;21376;50.954;4.716;2022-09-09T12:54:51;21.50;99.90
35240;DHT22;21376;50.954;4.716;2022-09-09T13:03:23;21.60;99.90
35240;DHT22;21376;50.954;4.716;2022-09-09T13:05:52;22.00;99.90
35240;DHT22;21376;50.954;4.716;2022-09-09T13:11:01;21.50;99.90
35240;DHT22;21376;50.954;4.716;2022-09-09T13:13:41;21.40;99.90
35240;DHT22;21376;50.954;4.716;2022-09-09T13:19:06;21.50;99.90
35240;DHT22;21376;50.954;4.716;2022-09-09T13:21:35;21.80;99.90
35240;DHT22;21376;50.954;4.716;2022-09-09T13:26:36;22.30;99.90
35240;DHT22;21376;50.954;4.716;2022-09-09T13:34:57;23.60;99.90
35240;DHT22;21376;50.954;4.716;2022-09-09T13:37:39;23.30;99.90
35240;DHT22;21376;50.954;4.716;2022-09-09T13:42:58;22.70;99.90
35240;DHT22;21376;50.954;4.716;2022-09-09T13:45:26;22.90;99.90
35240;DHT22;21376;50.954;4.716;2022-09-09T13:50:25;22.50;99.90
35240;DHT22;21376;50.954;4.716;2022-09-09T13:52:58;22.40;99.90
35240;DHT22;21376;50.954;4.716;2022-09-09T13:57:59;21.70;99.90
35240;DHT22;21376;50.954;4.716;2022-09-09T14:00:33;21.60;99.90
35240;DHT22;21376;50.954;4.716;2022-09-09T14:02:59;21.20;99.90
35240;DHT22;21376;50.954;4.716;2022-09-09T14:07:58;21.50;99.90
35240;DHT22;21376;50.954;4.716;2022-09-09T14:10:27;21.50;99.90
35240;DHT22;21376;50.954;4.716;2022-09-09T14:12:54;21.60;99.90
35240;DHT22;21376;50.954;4.716;2022-09-09T14:15:20;21.80;99.90
35240;DHT22;21376;50.954;4.716;2022-09-09T14:17:48;22.00;99.90
35240;DHT22;21376;50.954;4.716;2022-09-09T14:20:14;22.50;99.90
35240;DHT22;21376;50.954;4.716;2022-09-09T14:22:41;22.80;99.90
35240;DHT22;21376;50.954;4.716;2022-09-09T14:25:07;22.80;99.90
35240;DHT22;21376;50.954;4.716;2022-09-09T14:27:34;22.90;99.90
35240;DHT22;21376;50.954;4.716;2022-09-09T14:30:01;22.80;99.90
35240;DHT22;21376;50.954;4.716;2022-09-09T14:32:27;22.80;99.90
35240;DHT22;21376;50.954;4.716;2022-09-09T14:34:52;22.80;99.90
35240;DHT22;21376;50.954;4.716;2022-09-09T14:37:20;23.10;99.90
35240;DHT22;21376;50.954;4.716;2022-09-09T14:39:47;23.00;99.90
35240;DHT22;21376;50.954;4.716;2022-09-09T14:42:15;22.60;99.90
35240;DHT22;21376;50.954;4.716;2022-09-09T14:44:41;22.20;99.90
35240;DHT22;21376;50.954;4.716;2022-09-09T14:47:12;22.10;99.90
35240;DHT22;21376;50.954;4.716;2022-09-09T14:49:38;21.90;99.90
35240;DHT22;21376;50.954;4.716;2022-09-09T14:52:04;21.90;99.90
35240;DHT22;21376;50.954;4.716;2022-09-09T14:54:31;21.80;99.90
35240;DHT22;21376;50.954;4.716;2022-09-09T14:57:00;21.70;99.90
35240;DHT22;21376;50.954;4.716;2022-09-09T14:59:27;21.50;99.90
35240;DHT22;21376;50.954;4.716;2022-09-09T15:01:53;21.80;99.90
35240;DHT22;21376;50.954;4.716;2022-09-09T15:04:19;22.00;99.90
35240;DHT22;21376;50.954;4.716;2022-09-09T15:06:45;22.00;99.90
35240;DHT22;21376;50.954;4.716;2022-09-09T15:09:13;22.30;99.90
35240;DHT22;21376;50.954;4.716;2022-09-09T15:11:39;22.40;99.90
35240;DHT22;21376;50.954;4.716;2022-09-09T15:14:05;22.40;99.90
35240;DHT22;21376;50.954;4.716;2022-09-09T15:16:32;22.20;99.90
35240;DHT22;21376;50.954;4.716;2022-09-09T15:18:58;22.10;99.90
35240;DHT22;21376;50.954;4.716;2022-09-09T15:21:26;22.20;99.90
35240;DHT22;21376;50.954;4.716;2022-09-09T15:26:22;22.10;99.90
35240;DHT22;21376;50.954;4.716;2022-09-09T15:28:49;21.70;99.90
35240;DHT22;21376;50.954;4.716;2022-09-09T15:31:21;21.40;99.90
35240;DHT22;21376;50.954;4.716;2022-09-09T15:33:50;21.40;99.90
35240;DHT22;21376;50.954;4.716;2022-09-09T15:36:18;21.40;99.90
35240;DHT22;21376;50.954;4.716;2022-09-09T15:38:46;21.60;99.90
35240;DHT22;21376;50.954;4.716;2022-09-09T15:41:16;21.50;99.90
35240;DHT22;21376;50.954;4.716;2022-09-09T15:43:43;21.60;99.90
35240;DHT22;21376;50.954;4.716;2022-09-09T15:51:25;21.60;99.90
35240;DHT22;21376;50.954;4.716;2022-09-09T15:53:55;21.50;99.90
35240;DHT22;21376;50.954;4.716;2022-09-09T15:56:21;21.50;99.90
35240;DHT22;21376;50.954;4.716;2022-09-09T15:58:47;21.60;99.90
35240;DHT22;21376;50.954;4.716;2022-09-09T16:01:14;21.60;99.90
35240;DHT22;21376;50.954;4.716;2022-09-09T16:03:42;21.40;99.90
35240;DHT22;21376;50.954;4.716;2022-09-09T16:06:09;21.30;99.90
35240;DHT22;21376;50.954;4.716;2022-09-09T16:08:38;21.20;99.90
35240;DHT22;21376;50.954;4.716;2022-09-09T16:13:37;21.40;99.90
35240;DHT22;21376;50.954;4.716;2022-09-09T16:16:09;21.40;99.90
35240;DHT22;21376;50.954;4.716;2022-09-09T16:18:39;21.10;99.90
35240;DHT22;21376;50.954;4.716;2022-09-09T16:21:08;21.10;99.90
35240;DHT22;21376;50.954;4.716;2022-09-09T16:23:41;21.10;99.90
35240;DHT22;21376;50.954;4.716;2022-09-09T16:26:08;21.10;99.90
35240;DHT22;21376;50.954;4.716;2022-09-09T16:28:35;21.10;99.90
35240;DHT22;21376;50.954;4.716;2022-09-09T16:31:05;20.90;99.90
35240;DHT22;21376;50.954;4.716;2022-09-09T16:33:31;20.80;99.90
35240;DHT22;21376;50.954;4.716;2022-09-09T16:36:10;20.80;99.90
35240;DHT22;21376;50.954;4.716;2022-09-09T16:41:05;20.60;99.90
35240;DHT22;21376;50.954;4.716;2022-09-09T16:43:34;20.40;99.90
35240;DHT22;21376;50.954;4.716;2022-09-09T16:49:01;20.40;99.90
35240;DHT22;21376;50.954;4.716;2022-09-09T16:51:31;20.50;99.90
35240;DHT22;21376;50.954;4.716;2022-09-09T16:54:01;20.40;99.90
35240;DHT22;21376;50.954;4.716;2022-09-09T16:56:31;20.40;99.90
35240;DHT22;21376;50.954;4.716;2022-09-09T16:59:20;20.30;99.90
35240;DHT22;21376;50.954;4.716;2022-09-09T17:01:49;20.30;99.90
35240;DHT22;21376;50.954;4.716;2022-09-09T17:04:19;20.20;99.90
35240;DHT22;21376;50.954;4.716;2022-09-09T17:09:18;20.00;99.90
35240;DHT22;21376;50.954;4.716;2022-09-09T17:19:14;19.70;99.90
35240;DHT22;21376;50.954;4.716;2022-09-09T17:21:40;19.70;99.90
35240;DHT22;21376;50.954;4.716;2022-09-09T17:24:10;19.70;99.90
35240;DHT22;21376;50.954;4.716;2022-09-09T17:29:08;19.80;99.90
35240;DHT22;21376;50.954;4.716;2022-09-09T17:31:37;19.80;99.90
35240;DHT22;21376;50.954;4.716;2022-09-09T17:34:07;19.80;99.90
35240;DHT22;21376;50.954;4.716;2022-09-09T17:36:35;19.90;99.90
35240;DHT22;21376;50.954;4.716;2022-09-09T17:39:09;19.80;99.90
35240;DHT22;21376;50.954;4.716;2022-09-09T17:41:38;20.00;99.90
35240;DHT22;21376;50.954;4.716;2022-09-09T17:44:07;20.00;99.90
35240;DHT22;21376;50.954;4.716;2022-09-09T17:49:07;19.70;99.90
35240;DHT22;21376;50.954;4.716;2022-09-09T17:51:34;19.80;99.90
35240;DHT22;21376;50.954;4.716;2022-09-09T17:54:02;19.70;99.90
35240;DHT22;21376;50.954;4.716;2022-09-09T17:59:01;19.50;99.90
35240;DHT22;21376;50.954;4.716;2022-09-09T18:03:55;19.10;99.90
35240;DHT22;21376;50.954;4.716;2022-09-09T18:06:32;18.90;99.90
35240;DHT22;21376;50.954;4.716;2022-09-09T18:11:34;18.80;99.90
35240;DHT22;21376;50.954;4.716;2022-09-09T18:14:04;18.60;99.90
35240;DHT22;21376;50.954;4.716;2022-09-09T18:16:33;18.50;99.90
35240;DHT22;21376;50.954;4.716;2022-09-09T18:22:19;18.40;99.90
35240;DHT22;21376;50.954;4.716;2022-09-09T18:24:48;18.30;99.90
35240;DHT22;21376;50.954;4.716;2022-09-09T18:29:47;18.00;99.90
35240;DHT22;21376;50.954;4.716;2022-09-09T18:32:15;18.00;99.90
35240;DHT22;21376;50.954;4.716;2022-09-09T18:43:02;17.60;99.90
35240;DHT22;21376;50.954;4.716;2022-09-09T18:45:37;17.60;99.90
35240;DHT22;21376;50.954;4.716;2022-09-09T18:48:04;17.60;99.90
35240;DHT22;21376;50.954;4.716;2022-09-09T18:50:33;17.50;99.90
35240;DHT22;21376;50.954;4.716;2022-09-09T18:55:30;17.60;99.90
35240;DHT22;21376;50.954;4.716;2022-09-09T18:57:57;17.70;99.90
35240;DHT22;21376;50.954;4.716;2022-09-09T19:00:26;17.70;99.90
35240;DHT22;21376;50.954;4.716;2022-09-09T19:02:54;17.70;99.90
35240;DHT22;21376;50.954;4.716;2022-09-09T19:05:23;17.70;99.90
35240;DHT22;21376;50.954;4.716;2022-09-09T19:07:52;17.80;99.90
35240;DHT22;21376;50.954;4.716;2022-09-09T19:10:20;17.90;99.90
35240;DHT22;21376;50.954;4.716;2022-09-09T19:15:18;17.70;99.90
35240;DHT22;21376;50.954;4.716;2022-09-09T19:20:35;17.70;99.90
35240;DHT22;21376;50.954;4.716;2022-09-09T19:23:05;17.60;99.90
35240;DHT22;21376;50.954;4.716;2022-09-09T19:33:51;17.30;99.90
35240;DHT22;21376;50.954;4.716;2022-09-09T19:38:49;17.20;99.90
35240;DHT22;21376;50.954;4.716;2022-09-09T19:41:19;17.20;99.90
35240;DHT22;21376;50.954;4.716;2022-09-09T19:43:48;17.10;99.90
35240;DHT22;21376;50.954;4.716;2022-09-09T19:46:17;17.10;99.90
35240;DHT22;21376;50.954;4.716;2022-09-09T19:51:19;17.20;99.90
35240;DHT22;21376;50.954;4.716;2022-09-09T19:53:49;17.30;99.90
35240;DHT22;21376;50.954;4.716;2022-09-09T19:56:19;17.20;99.90
35240;DHT22;21376;50.954;4.716;2022-09-09T19:59:00;17.20;99.90
35240;DHT22;21376;50.954;4.716;2022-09-09T20:01:31;17.20;99.90
35240;DHT22;21376;50.954;4.716;2022-09-09T20:09:48;17.20;99.90
35240;DHT22;21376;50.954;4.716;2022-09-09T20:12:14;17.30;99.90
35240;DHT22;21376;50.954;4.716;2022-09-09T20:14:44;17.30;99.90
35240;DHT22;21376;50.954;4.716;2022-09-09T20:19:42;17.20;99.90
35240;DHT22;21376;50.954;4.716;2022-09-09T20:24:36;17.20;99.90
35240;DHT22;21376;50.954;4.716;2022-09-09T20:27:08;17.00;99.90
35240;DHT22;21376;50.954;4.716;2022-09-09T20:29:36;16.90;99.90
35240;DHT22;21376;50.954;4.716;2022-09-09T20:34:34;16.70;99.90
35240;DHT22;21376;50.954;4.716;2022-09-09T20:39:32;16.60;99.90
35240;DHT22;21376;50.954;4.716;2022-09-09T20:42:08;16.60;99.90
35240;DHT22;21376;50.954;4.716;2022-09-09T20:44:37;16.50;99.90
35240;DHT22;21376;50.954;4.716;2022-09-09T21:19:00;16.70;99.90
35240;DHT22;21376;50.954;4.716;2022-09-09T21:21:32;16.40;99.90
35240;DHT22;21376;50.954;4.716;2022-09-09T21:26:28;16.50;99.90
35240;DHT22;21376;50.954;4.716;2022-09-09T21:28:57;16.50;99.90
35240;DHT22;21376;50.954;4.716;2022-09-09T21:33:57;16.50;99.90
35240;DHT22;21376;50.954;4.716;2022-09-09T21:36:26;16.50;99.90
35240;DHT22;21376;50.954;4.716;2022-09-09T21:43:58;16.30;99.90
35240;DHT22;21376;50.954;4.716;2022-09-09T21:46:26;16.30;99.90
35240;DHT22;21376;50.954;4.716;2022-09-09T21:48:56;16.20;99.90
35240;DHT22;21376;50.954;4.716;2022-09-09T21:51:25;16.20;99.90
35240;DHT22;21376;50.954;4.716;2022-09-09T21:53:54;16.10;99.90
35240;DHT22;21376;50.954;4.716;2022-09-09T21:56:26;16.10;99.90
35240;DHT22;21376;50.954;4.716;2022-09-09T22:01:44;16.20;99.90
35240;DHT22;21376;50.954;4.716;2022-09-09T22:09:43;16.00;99.90
35240;DHT22;21376;50.954;4.716;2022-09-09T22:12:12;16.10;99.90
35240;DHT22;21376;50.954;4.716;2022-09-09T22:14:41;16.10;99.90
35240;DHT22;21376;50.954;4.716;2022-09-09T22:17:10;16.10;99.90
35240;DHT22;21376;50.954;4.716;2022-09-09T22:19:39;16.10;99.90
35240;DHT22;21376;50.954;4.716;2022-09-09T22:22:06;16.00;99.90
35240;DHT22;21376;50.954;4.716;2022-09-09T22:24:32;15.90;99.90
35240;DHT22;21376;50.954;4.716;2022-09-09T22:26:58;15.80;99.90
35240;DHT22;21376;50.954;4.716;2022-09-09T22:29:24;15.80;99.90
35240;DHT22;21376;50.954;4.716;2022-09-09T22:31:49;15.90;99.90
35240;DHT22;21376;50.954;4.716;2022-09-09T22:34:17;15.90;99.90
35240;DHT22;21376;50.954;4.716;2022-09-09T22:36:45;16.00;99.90
35240;DHT22;21376;50.954;4.716;2022-09-09T22:39:11;16.10;99.90
35240;DHT22;21376;50.954;4.716;2022-09-09T22:41:36;16.20;99.90
35240;DHT22;21376;50.954;4.716;2022-09-09T22:44:02;16.10;99.90
35240;DHT22;21376;50.954;4.716;2022-09-09T22:46:27;16.30;99.90
35240;DHT22;21376;50.954;4.716;2022-09-09T22:48:54;16.30;99.90
35240;DHT22;21376;50.954;4.716;2022-09-09T22:51:19;16.30;99.90
35240;DHT22;21376;50.954;4.716;2022-09-09T22:53:46;16.30;99.90
35240;DHT22;21376;50.954;4.716;2022-09-09T22:56:16;16.20;99.90
35240;DHT22;21376;50.954;4.716;2022-09-09T22:58:43;16.20;99.90
35240;DHT22;21376;50.954;4.716;2022-09-09T23:01:10;16.30;99.90